createdAt,value
2019-04-10T00:00:16.822Z,58.97
2019-04-10T00:01:17.378Z,58.97
2019-04-10T00:02:17.506Z,59.49
2019-04-10T00:03:28.114Z,59.69
2019-04-10T00:04:17.462Z,58.97
2019-04-10T00:05:16.456Z,59.18
2019-04-10T00:06:18.143Z,59.69
2019-04-10T00:07:18.370Z,59.39
2019-04-10T00:08:16.447Z,59.69
2019-04-10T00:09:16.937Z,59.69
2019-04-10T00:10:16.400Z,59.20
2019-04-10T00:11:16.625Z,59.59
2019-04-10T00:12:16.380Z,59.52
2019-04-10T00:13:16.408Z,60.03
2019-04-10T00:14:16.461Z,60.14
2019-04-10T00:15:18.201Z,60.55
2019-04-10T00:16:16.327Z,60.44
2019-04-10T00:17:16.551Z,60.65
2019-04-10T00:18:16.350Z,60.65
2019-04-10T00:19:16.294Z,61.07
2019-04-10T00:20:16.367Z,60.96
2019-04-10T00:21:17.454Z,60.55
2019-04-10T00:22:16.264Z,60.55
2019-04-10T00:23:17.314Z,60.55
2019-04-10T00:24:16.269Z,60.44
2019-04-10T00:25:16.867Z,60.68
2019-04-10T00:26:17.334Z,60.55
2019-04-10T00:27:16.679Z,60.44
2019-04-10T00:28:17.053Z,61.07
2019-04-10T00:29:16.216Z,60.96
2019-04-10T00:30:16.620Z,60.99
2019-04-10T00:31:16.164Z,60.96
2019-04-10T00:32:16.205Z,61.27
2019-04-10T00:33:16.604Z,60.99
2019-04-10T00:34:16.159Z,60.78
2019-04-10T00:35:16.126Z,61.10
2019-04-10T00:36:16.268Z,61.27
2019-04-10T00:37:23.642Z,60.96
2019-04-10T00:38:17.643Z,60.68
2019-04-10T00:39:16.096Z,60.89
2019-04-10T00:40:17.210Z,61.20
2019-04-10T00:41:16.327Z,61.40
2019-04-10T00:42:16.855Z,61.61
2019-04-10T00:43:16.994Z,61.51
2019-04-10T00:44:16.060Z,61.51
2019-04-10T00:45:16.015Z,61.61
2019-04-10T00:46:15.991Z,62.02
2019-04-10T00:47:16.856Z,62.23
2019-04-10T00:48:15.973Z,61.92
2019-04-10T00:49:15.987Z,62.46
2019-04-10T00:50:15.947Z,62.23
2019-04-10T00:51:15.944Z,62.37
2019-04-10T00:52:16.331Z,62.44
2019-04-10T00:53:16.943Z,62.44
2019-04-10T00:54:16.123Z,61.85
2019-04-10T00:55:15.923Z,62.26
2019-04-10T00:56:16.590Z,62.88
2019-04-10T00:57:16.960Z,62.77
2019-04-10T00:58:16.240Z,62.77
2019-04-10T00:59:15.852Z,62.77
2019-04-10T01:00:16.904Z,62.88
2019-04-10T01:01:15.999Z,62.65
2019-04-10T01:02:16.475Z,62.54
2019-04-10T01:03:15.812Z,62.77
2019-04-10T01:04:15.796Z,62.77
2019-04-10T01:05:15.787Z,62.88
2019-04-10T01:06:16.015Z,63.29
2019-04-10T01:07:16.809Z,62.77
2019-04-10T01:08:16.122Z,62.88
2019-04-10T01:09:15.733Z,63.09
2019-04-10T01:10:15.732Z,62.98
2019-04-10T01:11:17.012Z,63.09
2019-04-10T01:12:16.073Z,62.77
2019-04-10T01:13:16.685Z,63.50
2019-04-10T01:14:15.874Z,63.60
2019-04-10T01:15:15.672Z,63.40
2019-04-10T01:16:16.533Z,63.09
2019-04-10T01:17:15.913Z,63.29
2019-04-10T01:18:15.644Z,62.88
2019-04-10T01:19:15.630Z,63.29
2019-04-10T01:20:15.679Z,63.50
2019-04-10T01:21:15.604Z,63.60
2019-04-10T01:22:15.619Z,63.74
2019-04-10T01:23:16.089Z,63.84
2019-04-10T01:24:15.578Z,63.74
2019-04-10T01:25:16.501Z,63.95
2019-04-10T01:26:15.544Z,63.95
2019-04-10T01:27:15.994Z,63.84
2019-04-10T01:28:16.367Z,63.95
2019-04-10T01:29:15.574Z,64.15
2019-04-10T01:30:15.921Z,63.84
2019-04-10T01:31:15.498Z,63.95
2019-04-10T01:32:15.504Z,64.04
2019-04-10T01:33:16.366Z,63.95
2019-04-10T01:34:15.460Z,64.18
2019-04-10T01:35:16.128Z,63.84
2019-04-10T01:36:15.453Z,63.74
2019-04-10T01:37:16.574Z,64.46
2019-04-10T01:38:15.539Z,64.25
2019-04-10T01:39:15.898Z,64.87
2019-04-10T01:40:15.396Z,64.15
2019-04-10T01:41:15.388Z,64.67
2019-04-10T01:42:16.494Z,64.25
2019-04-10T01:43:18.527Z,64.36
2019-04-10T01:44:15.370Z,64.56
2019-04-10T01:45:15.447Z,64.56
2019-04-10T01:46:15.908Z,64.36
2019-04-10T01:47:15.318Z,63.74
2019-04-10T01:48:15.451Z,63.74
2019-04-10T01:49:15.655Z,64.36
2019-04-10T01:50:15.278Z,64.36
2019-04-10T01:51:15.275Z,63.74
2019-04-10T01:52:15.266Z,64.87
2019-04-10T01:53:15.252Z,63.95
2019-04-10T01:54:15.269Z,64.25
2019-04-10T01:55:23.913Z,65.08
2019-04-10T01:56:27.051Z,64.56
2019-04-10T01:57:16.662Z,64.36
2019-04-10T01:58:15.196Z,64.07
2019-04-10T01:59:15.924Z,63.87
2019-04-10T02:00:15.298Z,64.90
2019-04-10T02:01:15.158Z,65.01
2019-04-10T02:02:15.146Z,64.49
2019-04-10T02:03:15.988Z,64.18
2019-04-10T02:04:15.156Z,63.97
2019-04-10T02:05:15.143Z,65.11
2019-04-10T02:06:15.138Z,65.11
2019-04-10T02:07:16.102Z,65.53
2019-04-10T02:08:17.396Z,65.42
2019-04-10T02:09:15.089Z,65.32
2019-04-10T02:10:16.907Z,65.32
2019-04-10T02:11:15.425Z,65.53
2019-04-10T02:12:15.064Z,65.45
2019-04-10T02:13:15.028Z,65.25
2019-04-10T02:14:16.163Z,65.11
2019-04-10T02:15:15.876Z,65.53
2019-04-10T02:16:15.001Z,65.14
2019-04-10T02:17:14.980Z,65.45
2019-04-10T02:18:15.163Z,65.63
2019-04-10T02:19:14.959Z,65.42
2019-04-10T02:20:14.946Z,65.42
2019-04-10T02:21:15.745Z,64.83
2019-04-10T02:22:14.928Z,65.42
2019-04-10T02:23:14.943Z,65.22
2019-04-10T02:24:14.940Z,65.77
2019-04-10T02:25:15.784Z,65.77
2019-04-10T02:26:14.887Z,65.77
2019-04-10T02:27:14.876Z,65.25
2019-04-10T02:28:15.093Z,65.77
2019-04-10T02:29:15.571Z,65.97
2019-04-10T02:30:18.866Z,66.05
2019-04-10T02:31:15.113Z,65.56
2019-04-10T02:32:16.503Z,65.66
2019-04-10T02:33:15.916Z,66.18
2019-04-10T02:34:15.021Z,65.77
2019-04-10T02:35:18.976Z,65.97
2019-04-10T02:36:17.258Z,65.56
2019-04-10T02:37:15.336Z,65.87
2019-04-10T02:38:32.775Z,66.28
2019-04-10T02:39:25.706Z,67.00
2019-04-10T02:40:16.954Z,66.28
2019-04-10T02:41:14.733Z,67.00
2019-04-10T02:42:16.059Z,66.38
2019-04-10T02:43:16.093Z,66.08
2019-04-10T02:44:16.218Z,65.97
2019-04-10T02:45:15.514Z,66.90
2019-04-10T02:46:15.538Z,66.21
2019-04-10T02:47:14.772Z,66.83
2019-04-10T02:48:15.087Z,66.41
2019-04-10T02:49:16.220Z,66.93
2019-04-10T02:50:14.644Z,67.45
2019-04-10T02:51:15.475Z,66.69
2019-04-10T02:52:14.829Z,67.45
2019-04-10T02:53:15.315Z,66.59
2019-04-10T02:54:15.445Z,66.59
2019-04-10T02:55:14.564Z,67.00
2019-04-10T02:56:15.915Z,66.49
2019-04-10T02:57:14.565Z,66.41
2019-04-10T02:58:15.930Z,66.18
2019-04-10T02:59:15.483Z,66.28
2019-04-10T03:00:14.508Z,66.08
2019-04-10T03:01:15.687Z,66.31
2019-04-10T03:02:16.081Z,67.00
2019-04-10T03:03:15.835Z,66.38
2019-04-10T03:04:16.339Z,67.11
2019-04-10T03:05:15.935Z,67.21
2019-04-10T03:06:15.589Z,67.00
2019-04-10T03:07:15.807Z,67.21
2019-04-10T03:08:15.824Z,67.35
2019-04-10T03:09:28.858Z,66.80
2019-04-10T03:10:25.368Z,67.00
2019-04-10T03:11:16.910Z,66.38
2019-04-10T03:12:15.107Z,65.97
2019-04-10T03:13:14.375Z,66.80
2019-04-10T03:14:14.804Z,66.49
2019-04-10T03:15:15.050Z,66.72
2019-04-10T03:16:15.823Z,66.83
2019-04-10T03:17:14.323Z,67.11
2019-04-10T03:18:14.769Z,66.59
2019-04-10T03:19:14.304Z,66.49
2019-04-10T03:20:14.298Z,66.49
2019-04-10T03:21:15.310Z,67.21
2019-04-10T03:22:14.268Z,66.28
2019-04-10T03:23:14.282Z,66.38
2019-04-10T03:24:14.248Z,66.77
2019-04-10T03:25:14.922Z,66.08
2019-04-10T03:26:15.217Z,66.46
2019-04-10T03:27:14.328Z,66.56
2019-04-10T03:28:14.599Z,66.69
2019-04-10T03:29:14.202Z,66.97
2019-04-10T03:30:15.280Z,67.08
2019-04-10T03:31:15.746Z,65.63
2019-04-10T03:32:14.669Z,66.15
2019-04-10T03:33:21.016Z,67.18
2019-04-10T03:34:16.805Z,67.18
2019-04-10T03:35:14.551Z,66.15
2019-04-10T03:36:14.110Z,65.63
2019-04-10T03:37:14.118Z,65.32
2019-04-10T03:38:14.777Z,65.01
2019-04-10T03:39:15.253Z,65.73
2019-04-10T03:40:14.062Z,65.53
2019-04-10T03:41:14.063Z,65.94
2019-04-10T03:42:14.762Z,65.53
2019-04-10T03:43:14.052Z,66.15
2019-04-10T03:44:14.518Z,66.35
2019-04-10T03:45:14.008Z,66.77
2019-04-10T03:46:14.093Z,67.08
2019-04-10T03:47:13.985Z,66.56
2019-04-10T03:48:13.972Z,66.56
2019-04-10T03:49:13.961Z,66.46
2019-04-10T03:50:14.298Z,66.25
2019-04-10T03:51:14.430Z,65.53
2019-04-10T03:52:13.932Z,65.63
2019-04-10T03:53:14.087Z,65.63
2019-04-10T03:54:15.121Z,65.11
2019-04-10T03:55:13.937Z,65.84
2019-04-10T03:56:13.893Z,65.63
2019-04-10T03:57:14.263Z,66.15
2019-04-10T03:58:13.864Z,65.73
2019-04-10T03:59:13.891Z,65.53
2019-04-10T04:00:14.167Z,65.94
2019-04-10T04:01:14.472Z,66.05
2019-04-10T04:02:13.823Z,65.22
2019-04-10T04:03:13.824Z,65.73
2019-04-10T04:04:13.802Z,64.90
2019-04-10T04:05:14.735Z,65.63
2019-04-10T04:06:13.776Z,65.63
2019-04-10T04:07:13.766Z,65.50
2019-04-10T04:08:13.750Z,64.90
2019-04-10T04:09:15.056Z,65.42
2019-04-10T04:10:13.725Z,65.63
2019-04-10T04:11:13.771Z,65.42
2019-04-10T04:12:14.732Z,65.22
2019-04-10T04:13:13.712Z,65.84
2019-04-10T04:14:14.441Z,65.53
2019-04-10T04:15:13.686Z,66.25
2019-04-10T04:16:13.664Z,65.22
2019-04-10T04:17:13.697Z,65.42
2019-04-10T04:18:13.648Z,65.32
2019-04-10T04:19:13.645Z,65.73
2019-04-10T04:20:13.616Z,65.08
2019-04-10T04:21:13.601Z,65.32
2019-04-10T04:22:14.557Z,65.63
2019-04-10T04:23:13.816Z,64.98
2019-04-10T04:24:13.598Z,65.01
2019-04-10T04:25:13.573Z,64.98
2019-04-10T04:26:13.549Z,64.15
2019-04-10T04:27:13.545Z,65.08
2019-04-10T04:28:14.515Z,63.95
2019-04-10T04:29:14.375Z,64.98
2019-04-10T04:30:14.604Z,64.87
2019-04-10T04:31:13.499Z,64.80
2019-04-10T04:32:13.538Z,63.84
2019-04-10T04:33:13.479Z,64.46
2019-04-10T04:34:14.216Z,64.46
2019-04-10T04:35:13.455Z,63.64
2019-04-10T04:36:13.436Z,63.95
2019-04-10T04:37:13.448Z,63.74
2019-04-10T04:38:13.518Z,63.43
2019-04-10T04:39:21.655Z,63.95
2019-04-10T04:40:14.396Z,63.64
2019-04-10T04:41:13.379Z,63.92
2019-04-10T04:42:13.377Z,62.29
2019-04-10T04:43:14.539Z,62.29
2019-04-10T04:44:14.498Z,61.25
2019-04-10T04:45:13.332Z,61.98
2019-04-10T04:46:14.121Z,62.49
2019-04-10T04:47:13.446Z,61.05
2019-04-10T04:48:13.299Z,61.36
2019-04-10T04:49:13.686Z,61.02
2019-04-10T04:50:13.303Z,61.05
2019-04-10T04:51:13.311Z,60.40
2019-04-10T04:52:14.208Z,59.99
2019-04-10T04:53:14.270Z,60.30
2019-04-10T04:54:13.269Z,60.71
2019-04-10T04:55:14.215Z,61.33
2019-04-10T04:56:13.218Z,60.71
2019-04-10T04:57:13.213Z,60.81
2019-04-10T04:58:13.795Z,60.74
2019-04-10T04:59:14.156Z,60.63
2019-04-10T05:00:13.270Z,60.50
2019-04-10T05:01:13.159Z,60.53
2019-04-10T05:02:14.260Z,60.40
2019-04-10T05:03:13.140Z,60.40
2019-04-10T05:04:13.191Z,60.22
2019-04-10T05:05:14.251Z,60.42
2019-04-10T05:06:13.108Z,60.32
2019-04-10T05:07:13.569Z,60.63
2019-04-10T05:08:13.256Z,60.42
2019-04-10T05:09:20.974Z,60.81
2019-04-10T05:10:15.249Z,60.91
2019-04-10T05:11:13.882Z,60.60
2019-04-10T05:12:13.375Z,60.71
2019-04-10T05:13:13.664Z,60.81
2019-04-10T05:14:13.244Z,61.02
2019-04-10T05:15:13.040Z,60.60
2019-04-10T05:16:12.991Z,60.50
2019-04-10T05:17:15.592Z,60.71
2019-04-10T05:18:12.975Z,60.71
2019-04-10T05:19:12.972Z,60.42
2019-04-10T05:20:12.941Z,60.53
2019-04-10T05:21:12.939Z,60.74
2019-04-10T05:22:12.969Z,60.74
2019-04-10T05:23:13.901Z,61.15
2019-04-10T05:24:13.709Z,60.84
2019-04-10T05:25:13.279Z,60.74
2019-04-10T05:26:12.886Z,60.94
2019-04-10T05:27:13.848Z,60.63
2019-04-10T05:28:13.284Z,60.63
2019-04-10T05:29:13.175Z,60.63
2019-04-10T05:30:12.947Z,61.05
2019-04-10T05:31:13.065Z,60.53
2019-04-10T05:32:14.329Z,60.94
2019-04-10T05:33:12.840Z,61.05
2019-04-10T05:34:13.431Z,60.53
2019-04-10T05:35:12.782Z,59.50
2019-04-10T05:36:13.245Z,59.99
2019-04-10T05:37:13.563Z,59.99
2019-04-10T05:38:12.786Z,59.78
2019-04-10T05:39:12.737Z,60.11
2019-04-10T05:40:12.717Z,59.88
2019-04-10T05:41:13.372Z,59.26
2019-04-10T05:42:12.816Z,59.47
2019-04-10T05:43:13.448Z,59.29
2019-04-10T05:44:13.624Z,60.11
2019-04-10T05:45:12.731Z,60.09
2019-04-10T05:46:12.688Z,59.47
2019-04-10T05:47:13.623Z,59.29
2019-04-10T05:48:12.629Z,59.39
2019-04-10T05:49:12.781Z,59.47
2019-04-10T05:50:13.011Z,59.47
2019-04-10T05:51:12.648Z,58.02
2019-04-10T05:52:12.764Z,58.20
2019-04-10T05:53:12.570Z,57.92
2019-04-10T05:54:12.841Z,58.09
2019-04-10T05:55:12.572Z,57.48
2019-04-10T05:56:12.547Z,57.89
2019-04-10T05:57:12.536Z,57.99
2019-04-10T05:58:13.382Z,56.54
2019-04-10T05:59:14.335Z,58.09
2019-04-10T06:00:12.531Z,58.09
2019-04-10T06:01:13.493Z,56.34
2019-04-10T06:02:12.476Z,57.58
2019-04-10T06:03:12.522Z,56.44
2019-04-10T06:04:13.357Z,57.68
2019-04-10T06:05:12.507Z,57.89
2019-04-10T06:06:14.465Z,58.09
2019-04-10T06:07:12.760Z,56.44
2019-04-10T06:08:12.410Z,57.17
2019-04-10T06:09:12.403Z,56.54
2019-04-10T06:10:13.321Z,56.34
2019-04-10T06:11:13.562Z,56.85
2019-04-10T06:12:12.371Z,56.96
2019-04-10T06:13:12.995Z,55.82
2019-04-10T06:14:13.499Z,56.75
2019-04-10T06:15:12.808Z,56.34
2019-04-10T06:16:12.348Z,56.24
2019-04-10T06:17:12.311Z,56.34
2019-04-10T06:18:12.782Z,54.79
2019-04-10T06:19:12.533Z,55.20
2019-04-10T06:20:14.056Z,56.24
2019-04-10T06:21:12.589Z,55.30
2019-04-10T06:22:12.750Z,56.03
2019-04-10T06:23:12.249Z,57.37
2019-04-10T06:24:12.269Z,57.27
2019-04-10T06:25:15.284Z,55.72
2019-04-10T06:26:12.707Z,55.72
2019-04-10T06:27:12.322Z,54.89
2019-04-10T06:28:12.913Z,55.82
2019-04-10T06:29:12.875Z,54.06
2019-04-10T06:30:12.205Z,56.13
2019-04-10T06:31:12.537Z,55.72
2019-04-10T06:32:12.147Z,54.89
2019-04-10T06:33:12.152Z,55.82
2019-04-10T06:34:14.323Z,56.13
2019-04-10T06:35:12.115Z,56.75
2019-04-10T06:36:13.196Z,56.00
2019-04-10T06:37:12.111Z,55.59
2019-04-10T06:38:12.737Z,54.86
2019-04-10T06:39:12.920Z,55.28
2019-04-10T06:40:18.740Z,56.62
2019-04-10T06:41:15.861Z,54.76
2019-04-10T06:42:12.147Z,55.38
2019-04-10T06:43:12.830Z,54.74
2019-04-10T06:44:12.018Z,54.45
2019-04-10T06:45:12.022Z,54.43
2019-04-10T06:46:12.512Z,54.22
2019-04-10T06:47:12.031Z,53.81
2019-04-10T06:48:12.978Z,53.60
2019-04-10T06:49:12.290Z,53.39
2019-04-10T06:50:12.797Z,53.91
2019-04-10T06:51:12.300Z,54.53
2019-04-10T06:52:11.965Z,53.91
2019-04-10T06:53:13.241Z,54.45
2019-04-10T06:54:12.980Z,54.84
2019-04-10T06:55:11.902Z,55.05
2019-04-10T06:56:11.879Z,54.12
2019-04-10T06:57:11.874Z,52.98
2019-04-10T06:58:11.894Z,52.26
2019-04-10T06:59:12.206Z,52.39
2019-04-10T07:00:13.686Z,54.45
2019-04-10T07:01:12.596Z,54.25
2019-04-10T07:02:21.707Z,54.45
2019-04-10T07:03:12.898Z,54.76
2019-04-10T07:04:11.846Z,54.86
2019-04-10T07:05:12.384Z,54.45
2019-04-10T07:06:17.612Z,54.35
2019-04-10T07:07:15.179Z,53.60
2019-04-10T07:08:16.562Z,54.94
2019-04-10T07:09:13.777Z,54.25
2019-04-10T07:10:23.597Z,54.43
2019-04-10T07:11:13.505Z,54.12
2019-04-10T07:12:12.163Z,54.53
2019-04-10T07:13:13.332Z,53.70
2019-04-10T07:14:14.322Z,54.02
2019-04-10T07:15:12.506Z,53.50
2019-04-10T07:16:12.685Z,52.67
2019-04-10T07:17:13.922Z,53.70
2019-04-10T07:18:15.288Z,53.60
2019-04-10T07:19:13.166Z,52.57
2019-04-10T07:20:11.623Z,53.39
2019-04-10T07:21:12.543Z,53.70
2019-04-10T07:22:14.193Z,51.92
2019-04-10T07:23:13.916Z,51.72
2019-04-10T07:24:13.741Z,51.72
2019-04-10T07:25:12.859Z,52.23
2019-04-10T07:26:14.545Z,52.00
2019-04-10T07:27:12.531Z,52.00
2019-04-10T07:28:12.545Z,51.18
2019-04-10T07:29:16.452Z,51.26
2019-04-10T07:30:12.533Z,50.84
2019-04-10T07:31:11.681Z,51.36
2019-04-10T07:32:12.323Z,51.26
2019-04-10T07:33:14.861Z,50.64
2019-04-10T07:34:12.471Z,51.67
2019-04-10T07:35:14.334Z,51.34
2019-04-10T07:36:13.997Z,50.92
2019-04-10T07:37:14.729Z,49.38
2019-04-10T07:38:12.422Z,49.48
2019-04-10T07:39:11.400Z,50.31
2019-04-10T07:40:12.237Z,50.31
2019-04-10T07:41:17.074Z,49.17
2019-04-10T07:42:25.298Z,49.27
2019-04-10T07:43:13.276Z,49.38
2019-04-10T07:44:12.153Z,48.33
2019-04-10T07:45:11.341Z,48.74
2019-04-10T07:46:11.370Z,48.43
2019-04-10T07:47:11.313Z,48.74
2019-04-10T07:48:11.302Z,48.43
2019-04-10T07:49:11.319Z,47.71
2019-04-10T07:50:12.234Z,48.14
2019-04-10T07:51:11.342Z,48.53
2019-04-10T07:52:11.256Z,49.15
2019-04-10T07:53:11.405Z,48.43
2019-04-10T07:54:12.037Z,48.43
2019-04-10T07:55:11.253Z,48.20
2019-04-10T07:56:16.253Z,48.61
2019-04-10T07:57:12.212Z,48.51
2019-04-10T07:58:11.191Z,47.48
2019-04-10T07:59:11.236Z,48.41
2019-04-10T08:00:11.198Z,48.38
2019-04-10T08:01:12.020Z,48.18
2019-04-10T08:02:12.379Z,46.94
2019-04-10T08:03:11.146Z,48.28
2019-04-10T08:04:11.132Z,47.77
2019-04-10T08:05:12.268Z,47.66
2019-04-10T08:06:11.149Z,47.35
2019-04-10T08:07:12.796Z,47.25
2019-04-10T08:08:12.678Z,48.07
2019-04-10T08:09:11.154Z,47.05
2019-04-10T08:10:12.043Z,48.59
2019-04-10T08:11:11.222Z,47.02
2019-04-10T08:12:11.361Z,47.02
2019-04-10T08:13:12.058Z,48.26
2019-04-10T08:14:11.072Z,46.82
2019-04-10T08:15:11.294Z,45.68
2019-04-10T08:16:11.039Z,46.30
2019-04-10T08:17:12.100Z,47.02
2019-04-10T08:18:10.974Z,46.41
2019-04-10T08:19:10.952Z,47.02
2019-04-10T08:20:11.024Z,47.02
2019-04-10T08:21:11.305Z,45.48
2019-04-10T08:22:10.916Z,46.41
2019-04-10T08:23:10.908Z,46.61
2019-04-10T08:24:11.438Z,46.39
2019-04-10T08:25:10.897Z,46.48
2019-04-10T08:26:10.901Z,46.08
2019-04-10T08:27:11.716Z,45.23
2019-04-10T08:28:11.420Z,44.82
2019-04-10T08:29:11.973Z,44.20
2019-04-10T08:30:11.227Z,44.92
2019-04-10T08:31:10.847Z,45.43
2019-04-10T08:32:11.787Z,45.43
2019-04-10T08:33:11.894Z,45.75
2019-04-10T08:34:11.042Z,45.23
2019-04-10T08:35:11.250Z,45.75
2019-04-10T08:36:10.978Z,45.13
2019-04-10T08:37:10.772Z,45.97
2019-04-10T08:38:10.744Z,45.03
2019-04-10T08:39:10.980Z,45.03
2019-04-10T08:40:11.557Z,44.82
2019-04-10T08:41:10.813Z,45.52
2019-04-10T08:42:10.771Z,44.80
2019-04-10T08:43:11.768Z,44.78
2019-04-10T08:44:10.827Z,44.47
2019-04-10T08:45:11.391Z,43.94
2019-04-10T08:46:10.886Z,44.45
2019-04-10T08:47:11.055Z,44.04
2019-04-10T08:48:10.649Z,43.22
2019-04-10T08:49:10.618Z,42.58
2019-04-10T08:50:11.778Z,43.94
2019-04-10T08:51:10.835Z,42.89
2019-04-10T08:52:10.666Z,42.60
2019-04-10T08:53:11.620Z,42.50
2019-04-10T08:54:10.567Z,42.91
2019-04-10T08:55:10.564Z,42.79
2019-04-10T08:56:10.809Z,42.69
2019-04-10T08:57:11.211Z,43.10
2019-04-10T08:58:10.602Z,42.69
2019-04-10T08:59:11.716Z,42.79
2019-04-10T09:00:10.498Z,44.43
2019-04-10T09:01:11.186Z,42.58
2019-04-10T09:02:11.592Z,44.12
2019-04-10T09:03:10.802Z,43.01
2019-04-10T09:04:10.507Z,42.91
2019-04-10T09:05:11.266Z,43.22
2019-04-10T09:06:11.304Z,42.93
2019-04-10T09:07:11.636Z,42.93
2019-04-10T09:08:10.807Z,42.21
2019-04-10T09:09:10.405Z,42.93
2019-04-10T09:10:10.413Z,43.01
2019-04-10T09:11:11.224Z,43.12
2019-04-10T09:12:10.409Z,43.84
2019-04-10T09:13:10.493Z,44.45
2019-04-10T09:14:10.706Z,43.94
2019-04-10T09:15:10.356Z,44.14
2019-04-10T09:16:10.332Z,43.84
2019-04-10T09:17:11.185Z,44.14
2019-04-10T09:18:11.376Z,44.24
2019-04-10T09:19:10.329Z,44.04
2019-04-10T09:20:10.858Z,43.01
2019-04-10T09:21:11.156Z,43.20
2019-04-10T09:22:10.258Z,42.79
2019-04-10T09:23:23.583Z,42.27
2019-04-10T09:24:13.853Z,42.17
2019-04-10T09:25:11.145Z,42.99
2019-04-10T09:26:11.299Z,42.89
2019-04-10T09:27:10.955Z,44.23
2019-04-10T09:28:10.562Z,44.12
2019-04-10T09:29:10.184Z,42.89
2019-04-10T09:30:10.882Z,43.73
2019-04-10T09:31:10.307Z,43.81
2019-04-10T09:32:11.107Z,42.69
2019-04-10T09:33:20.940Z,43.18
2019-04-10T09:34:11.758Z,42.97
2019-04-10T09:35:10.182Z,42.66
2019-04-10T09:36:11.182Z,41.02
2019-04-10T09:37:10.101Z,42.05
2019-04-10T09:38:10.582Z,40.51
2019-04-10T09:39:10.149Z,41.13
2019-04-10T09:40:10.053Z,41.33
2019-04-10T09:41:10.106Z,40.92
2019-04-10T09:42:10.670Z,41.00
2019-04-10T09:43:10.020Z,42.44
2019-04-10T09:44:10.327Z,41.11
2019-04-10T09:45:10.009Z,40.58
2019-04-10T09:46:11.197Z,40.80
2019-04-10T09:47:09.972Z,40.68
2019-04-10T09:48:10.624Z,40.68
2019-04-10T09:49:09.951Z,40.88
2019-04-10T09:50:09.966Z,41.78
2019-04-10T09:51:09.935Z,40.66
2019-04-10T09:52:10.335Z,40.37
2019-04-10T09:53:10.773Z,40.47
2019-04-10T09:54:09.962Z,40.58
2019-04-10T09:55:09.905Z,40.37
2019-04-10T09:56:09.874Z,40.58
2019-04-10T09:57:09.887Z,39.84
2019-04-10T09:58:09.854Z,40.35
2019-04-10T09:59:09.857Z,40.45
2019-04-10T10:00:10.620Z,40.66
2019-04-10T10:01:10.724Z,40.23
2019-04-10T10:02:09.833Z,40.54
2019-04-10T10:03:09.878Z,40.13
2019-04-10T10:04:09.787Z,39.50
2019-04-10T10:05:10.507Z,39.60
2019-04-10T10:06:22.019Z,38.04
2019-04-10T10:07:10.749Z,38.25
2019-04-10T10:08:10.623Z,37.93
2019-04-10T10:09:09.730Z,37.50
2019-04-10T10:10:10.686Z,36.47
2019-04-10T10:11:09.708Z,38.40
2019-04-10T10:12:09.697Z,37.59
2019-04-10T10:13:09.723Z,37.28
2019-04-10T10:14:10.369Z,37.79
2019-04-10T10:15:09.667Z,37.60
2019-04-10T10:16:10.518Z,37.40
2019-04-10T10:17:10.601Z,36.90
2019-04-10T10:18:09.628Z,38.04
2019-04-10T10:19:10.037Z,38.03
2019-04-10T10:20:09.637Z,37.52
2019-04-10T10:21:10.273Z,37.91
2019-04-10T10:22:09.580Z,39.14
2019-04-10T10:23:09.642Z,38.73
2019-04-10T10:24:10.662Z,38.11
2019-04-10T10:25:09.551Z,37.89
2019-04-10T10:26:10.002Z,38.09
2019-04-10T10:27:09.542Z,37.89
2019-04-10T10:28:09.511Z,37.28
2019-04-10T10:29:09.547Z,38.30
2019-04-10T10:30:09.585Z,37.38
2019-04-10T10:31:09.488Z,37.79
2019-04-10T10:32:09.472Z,36.87
2019-04-10T10:33:09.852Z,37.91
2019-04-10T10:34:10.305Z,37.91
2019-04-10T10:35:09.456Z,37.29
2019-04-10T10:36:09.624Z,37.70
2019-04-10T10:37:10.464Z,37.09
2019-04-10T10:38:10.500Z,36.60
2019-04-10T10:39:12.960Z,36.49
2019-04-10T10:40:10.128Z,36.80
2019-04-10T10:41:09.368Z,36.80
2019-04-10T10:42:09.610Z,37.63
2019-04-10T10:43:10.022Z,37.95
2019-04-10T10:44:09.358Z,37.74
2019-04-10T10:45:10.520Z,38.04
2019-04-10T10:46:09.307Z,37.95
2019-04-10T10:47:09.296Z,37.95
2019-04-10T10:48:09.291Z,37.54
2019-04-10T10:49:10.375Z,38.44
2019-04-10T10:50:09.294Z,39.69
2019-04-10T10:51:09.265Z,39.39
2019-04-10T10:52:09.237Z,38.57
2019-04-10T10:53:10.241Z,39.60
2019-04-10T10:54:09.224Z,39.09
2019-04-10T10:55:09.742Z,39.19
2019-04-10T10:56:09.864Z,38.45
2019-04-10T10:57:09.230Z,38.25
2019-04-10T10:58:09.188Z,38.34
2019-04-10T10:59:09.294Z,38.75
2019-04-10T11:00:11.928Z,38.15
2019-04-10T11:01:09.159Z,38.15
2019-04-10T11:02:09.153Z,37.84
2019-04-10T11:03:09.927Z,37.76
2019-04-10T11:04:09.129Z,37.96
2019-04-10T11:05:09.109Z,38.27
2019-04-10T11:06:09.109Z,40.03
2019-04-10T11:07:09.078Z,40.03
2019-04-10T11:08:09.063Z,40.54
2019-04-10T11:09:10.125Z,40.21
2019-04-10T11:10:09.046Z,40.31
2019-04-10T11:11:09.296Z,40.31
2019-04-10T11:12:09.533Z,40.30
2019-04-10T11:13:09.057Z,40.19
2019-04-10T11:14:08.996Z,40.60
2019-04-10T11:15:10.065Z,39.89
2019-04-10T11:16:09.270Z,39.97
2019-04-10T11:17:09.311Z,36.60
2019-04-10T11:18:08.977Z,37.21
2019-04-10T11:19:09.044Z,37.41
2019-04-10T11:20:10.044Z,37.82
2019-04-10T11:21:11.682Z,38.01
2019-04-10T11:22:09.387Z,37.50
2019-04-10T11:23:09.547Z,37.40
2019-04-10T11:24:09.247Z,36.38
2019-04-10T11:25:08.882Z,36.99
2019-04-10T11:26:08.871Z,37.60
2019-04-10T11:27:10.017Z,36.77
2019-04-10T11:28:08.839Z,36.15
2019-04-10T11:29:09.917Z,35.75
2019-04-10T11:30:10.077Z,36.25
2019-04-10T11:31:09.267Z,36.36
2019-04-10T11:32:09.256Z,36.66
2019-04-10T11:33:08.786Z,36.75
2019-04-10T11:34:09.994Z,34.81
2019-04-10T11:35:08.806Z,36.32
2019-04-10T11:36:09.843Z,35.71
2019-04-10T11:37:23.079Z,35.71
2019-04-10T11:38:10.899Z,36.10
2019-04-10T11:39:16.737Z,35.19
2019-04-10T11:40:09.809Z,35.19
2019-04-10T11:41:08.704Z,34.98
2019-04-10T11:42:09.910Z,35.15
2019-04-10T11:43:10.073Z,34.84
2019-04-10T11:44:09.905Z,34.73
2019-04-10T11:45:10.249Z,35.03
2019-04-10T11:46:10.146Z,35.36
2019-04-10T11:47:10.048Z,35.36
2019-04-10T11:48:10.174Z,34.76
2019-04-10T11:49:11.066Z,35.78
2019-04-10T11:50:14.068Z,32.52
2019-04-10T11:51:13.282Z,31.79
2019-04-10T11:52:10.514Z,31.28
2019-04-10T11:53:10.278Z,31.38
2019-04-10T11:54:12.426Z,29.44
2019-04-10T11:55:13.826Z,30.27
2019-04-10T11:56:11.452Z,30.79
2019-04-10T11:57:10.027Z,31.31
2019-04-10T11:58:10.537Z,32.74
2019-04-10T11:59:11.782Z,32.75
2019-04-10T12:00:12.064Z,33.67
2019-04-10T12:01:10.534Z,33.55
2019-04-10T12:02:10.130Z,31.41
2019-04-10T12:03:10.254Z,31.01
2019-04-10T12:04:10.722Z,31.51
2019-04-10T12:06:11.947Z,31.51
2019-04-10T12:07:09.755Z,31.41
2019-04-10T12:09:51.281Z,31.72
2019-04-10T12:11:14.565Z,31.93
2019-04-10T12:12:09.343Z,31.93
2019-04-10T12:13:08.340Z,32.03
2019-04-10T12:14:08.332Z,32.45
2019-04-10T12:15:08.320Z,31.43
2019-04-10T12:16:09.286Z,32.36
2019-04-10T12:17:08.330Z,32.26
2019-04-10T12:18:08.646Z,32.06
2019-04-10T12:19:08.270Z,32.56
2019-04-10T12:20:08.968Z,31.95
2019-04-10T12:21:09.303Z,30.51
2019-04-10T12:22:09.453Z,31.43
2019-04-10T12:23:08.477Z,32.34
2019-04-10T12:24:09.442Z,32.74
2019-04-10T12:25:08.198Z,33.13
2019-04-10T12:26:08.207Z,32.43
2019-04-10T12:27:09.184Z,31.40
2019-04-10T12:28:08.200Z,31.40
2019-04-10T12:29:08.659Z,31.60
2019-04-10T12:30:08.141Z,30.27
2019-04-10T12:31:08.159Z,30.89
2019-04-10T12:32:08.285Z,30.58
2019-04-10T12:33:08.110Z,31.18
2019-04-10T12:34:08.822Z,32.11
2019-04-10T12:35:08.810Z,31.38
2019-04-10T12:36:08.082Z,29.46
2019-04-10T12:37:09.064Z,30.48
2019-04-10T12:38:10.463Z,31.62
2019-04-10T12:39:08.045Z,30.60
2019-04-10T12:40:08.029Z,30.99
2019-04-10T12:41:08.882Z,29.85
2019-04-10T12:42:08.050Z,29.94
2019-04-10T12:43:08.435Z,29.53
2019-04-10T12:44:07.983Z,29.53
2019-04-10T12:45:08.297Z,30.64
2019-04-10T12:46:08.644Z,29.74
2019-04-10T12:47:08.012Z,30.03
2019-04-10T12:48:07.942Z,29.23
2019-04-10T12:49:07.960Z,29.13
2019-04-10T12:50:08.130Z,30.87
2019-04-10T12:51:07.925Z,30.58
2019-04-10T12:52:08.073Z,30.68
2019-04-10T12:53:07.889Z,31.41
2019-04-10T12:54:08.029Z,32.23
2019-04-10T12:55:08.139Z,31.92